createdAt,value
2019-03-25T00:02:09.571Z,6.45
2019-03-25T00:04:38.205Z,6.47
2019-03-25T00:07:06.782Z,6.50
2019-03-25T00:09:35.472Z,6.46
2019-03-25T00:12:04.084Z,6.43
2019-03-25T00:14:32.950Z,6.50
2019-03-25T00:17:01.634Z,6.49
2019-03-25T00:19:30.252Z,6.71
2019-03-25T00:21:58.836Z,7.04
2019-03-25T00:24:37.924Z,7.09
2019-03-25T00:26:57.815Z,6.96
2019-03-25T00:29:26.365Z,6.84
2019-03-25T00:31:55.467Z,6.65
2019-03-25T00:34:24.070Z,6.59
2019-03-25T00:36:52.656Z,6.49
2019-03-25T00:39:21.230Z,6.54
2019-03-25T00:41:49.678Z,6.57
2019-03-25T00:44:18.419Z,6.68
2019-03-25T00:46:46.865Z,6.86
2019-03-25T00:49:15.481Z,6.99
2019-03-25T00:51:44.193Z,7.02
2019-03-25T00:54:12.776Z,7.06
2019-03-25T00:56:41.305Z,7.15
2019-03-25T00:59:09.956Z,7.11
2019-03-25T01:01:38.460Z,6.90
2019-03-25T01:04:07.070Z,6.67
2019-03-25T01:06:35.674Z,6.49
2019-03-25T01:09:06.150Z,6.38
2019-03-25T01:11:34.767Z,6.24
2019-03-25T01:14:04.209Z,6.27
2019-03-25T01:16:32.831Z,6.29
2019-03-25T01:19:01.274Z,6.44
2019-03-25T01:21:29.885Z,6.55
2019-03-25T01:23:58.455Z,6.63
2019-03-25T01:26:27.039Z,6.67
2019-03-25T01:28:55.666Z,6.74
2019-03-25T01:31:24.911Z,6.86
2019-03-25T01:33:53.550Z,7.03
2019-03-25T01:36:22.069Z,7.06
2019-03-25T01:38:50.703Z,6.89
2019-03-25T01:41:19.182Z,6.70
2019-03-25T01:43:47.794Z,6.70
2019-03-25T01:46:16.293Z,6.65
2019-03-25T01:48:44.843Z,6.57
2019-03-25T01:51:13.420Z,6.55
2019-03-25T01:53:41.993Z,6.69
2019-03-25T01:56:10.467Z,6.70
2019-03-25T01:58:38.945Z,6.72
2019-03-25T02:01:07.519Z,6.84
2019-03-25T02:03:36.022Z,7.06
2019-03-25T02:06:05.654Z,7.25
2019-03-25T02:08:34.243Z,7.49
2019-03-25T02:11:03.072Z,7.59
2019-03-25T02:13:31.653Z,7.39
2019-03-25T02:16:00.664Z,7.12
2019-03-25T02:18:29.234Z,7.00
2019-03-25T02:20:57.838Z,6.79
2019-03-25T02:23:26.409Z,6.67
2019-03-25T02:25:54.841Z,6.78
2019-03-25T02:28:23.438Z,6.88
2019-03-25T02:30:52.075Z,6.95
2019-03-25T02:33:20.579Z,7.07
2019-03-25T02:35:49.133Z,7.26
2019-03-25T02:38:17.686Z,7.38
2019-03-25T02:40:46.320Z,7.47
2019-03-25T02:43:14.795Z,7.72
2019-03-25T02:45:43.379Z,7.86
2019-03-25T02:48:12.134Z,7.77
2019-03-25T02:50:40.618Z,7.46
2019-03-25T02:53:09.134Z,7.30
2019-03-25T02:55:41.988Z,7.22
2019-03-25T02:58:07.954Z,6.99
2019-03-25T03:00:38.045Z,6.85
2019-03-25T03:03:08.192Z,6.89
2019-03-25T03:05:37.400Z,7.06
2019-03-25T03:08:06.993Z,7.10
2019-03-25T03:10:36.028Z,7.16
2019-03-25T03:13:04.734Z,7.32
2019-03-25T03:15:33.327Z,7.28
2019-03-25T03:18:02.017Z,7.45
2019-03-25T03:20:30.609Z,7.95
2019-03-25T03:22:59.135Z,7.97
2019-03-25T03:25:27.717Z,7.67
2019-03-25T03:27:56.266Z,7.41
2019-03-25T03:30:25.181Z,7.29
2019-03-25T03:32:53.806Z,7.21
2019-03-25T03:35:22.301Z,7.08
2019-03-25T03:37:50.845Z,7.03
2019-03-25T03:40:19.709Z,7.02
2019-03-25T03:42:48.307Z,7.25
2019-03-25T03:45:17.037Z,7.19
2019-03-25T03:47:45.480Z,7.23
2019-03-25T03:50:16.995Z,7.23
2019-03-25T03:52:45.966Z,7.35
2019-03-25T03:55:15.508Z,7.77
2019-03-25T03:57:44.698Z,7.97
2019-03-25T04:00:16.386Z,7.73
2019-03-25T04:02:44.999Z,7.46
2019-03-25T04:05:13.542Z,7.31
2019-03-25T04:07:42.092Z,7.12
2019-03-25T04:10:10.754Z,6.92
2019-03-25T04:12:39.318Z,7.08
2019-03-25T04:15:08.630Z,7.15
2019-03-25T04:17:37.135Z,7.30
2019-03-25T04:20:07.640Z,7.45
2019-03-25T04:22:36.239Z,7.64
2019-03-25T04:25:06.451Z,7.71
2019-03-25T04:27:35.126Z,7.69
2019-03-25T04:30:03.811Z,7.92
2019-03-25T04:32:32.453Z,8.16
2019-03-25T04:35:00.976Z,7.90
2019-03-25T04:37:29.553Z,7.68
2019-03-25T04:39:58.023Z,7.57
2019-03-25T04:42:26.529Z,7.27
2019-03-25T04:44:55.176Z,7.27
2019-03-25T04:47:23.614Z,7.17
2019-03-25T04:49:52.158Z,7.08
2019-03-25T04:52:20.742Z,7.04
2019-03-25T04:54:49.248Z,7.27
2019-03-25T04:57:17.798Z,7.58
2019-03-25T04:59:46.410Z,7.70
2019-03-25T05:02:14.857Z,7.74
2019-03-25T05:04:43.407Z,7.82
2019-03-25T05:07:11.921Z,8.12
2019-03-25T05:09:40.419Z,7.91
2019-03-25T05:12:09.444Z,7.75
2019-03-25T05:14:38.018Z,7.52
2019-03-25T05:17:06.684Z,7.20
2019-03-25T05:19:35.307Z,7.06
2019-03-25T05:22:03.902Z,6.89
2019-03-25T05:24:32.425Z,7.05
2019-03-25T05:27:00.898Z,7.08
2019-03-25T05:29:29.504Z,7.12
2019-03-25T05:31:58.108Z,7.16
2019-03-25T05:34:26.648Z,7.23
2019-03-25T05:36:55.796Z,7.35
2019-03-25T05:39:25.104Z,7.56
2019-03-25T05:41:53.609Z,7.86
2019-03-25T05:44:22.137Z,7.78
2019-03-25T05:46:50.771Z,7.40
2019-03-25T05:49:19.386Z,7.17
2019-03-25T05:51:47.913Z,6.96
2019-03-25T05:54:16.362Z,6.86
2019-03-25T05:56:44.969Z,6.79
2019-03-25T05:59:13.564Z,6.79
2019-03-25T06:01:44.241Z,6.72
2019-03-25T06:04:12.390Z,6.80
2019-03-25T06:06:40.980Z,6.98
2019-03-25T06:09:09.518Z,7.03
2019-03-25T06:11:38.069Z,7.13
2019-03-25T06:14:06.665Z,7.22
2019-03-25T06:16:35.280Z,7.58
2019-03-25T06:19:04.039Z,7.97
2019-03-25T06:21:32.584Z,7.69
2019-03-25T06:24:01.077Z,7.50
2019-03-25T06:26:29.634Z,7.36
2019-03-25T06:28:58.133Z,7.14
2019-03-25T06:31:26.650Z,6.89
2019-03-25T06:33:55.128Z,6.85
2019-03-25T06:36:23.689Z,6.83
2019-03-25T06:38:52.246Z,6.91
2019-03-25T06:41:20.771Z,6.81
2019-03-25T06:43:49.403Z,7.17
2019-03-25T06:46:18.001Z,7.17
2019-03-25T06:48:46.516Z,7.09
2019-03-25T06:51:15.578Z,7.33
2019-03-25T06:53:44.060Z,7.71
2019-03-25T06:56:12.631Z,7.78
2019-03-25T06:58:41.670Z,7.52
2019-03-25T07:01:10.178Z,7.31
2019-03-25T07:03:38.635Z,7.24
2019-03-25T07:06:07.393Z,7.13
2019-03-25T07:08:35.908Z,7.22
2019-03-25T07:11:04.788Z,7.15
2019-03-25T07:13:33.713Z,7.35
2019-03-25T07:16:02.216Z,7.54
2019-03-25T07:18:31.248Z,8.10
2019-03-25T07:20:59.819Z,8.70
2019-03-25T07:23:28.494Z,9.42
2019-03-25T07:25:57.049Z,8.97
2019-03-25T07:28:25.596Z,9.42
2019-03-25T07:30:54.221Z,9.70
2019-03-25T07:33:22.777Z,9.45
2019-03-25T07:35:51.390Z,9.07
2019-03-25T07:38:20.008Z,8.93
2019-03-25T07:40:48.600Z,8.76
2019-03-25T07:43:17.080Z,8.62
2019-03-25T07:45:45.931Z,9.00
2019-03-25T07:48:14.516Z,9.05
2019-03-25T07:50:43.174Z,9.46
2019-03-25T07:53:11.768Z,9.68
2019-03-25T07:55:40.382Z,10.00
2019-03-25T07:58:08.986Z,10.79
2019-03-25T08:00:37.623Z,11.69
2019-03-25T08:03:06.258Z,11.78
2019-03-25T08:05:35.153Z,11.21
2019-03-25T08:08:03.815Z,10.90
2019-03-25T08:10:33.695Z,10.19
2019-03-25T08:13:02.911Z,10.06
2019-03-25T08:15:31.679Z,10.05
2019-03-25T08:18:00.530Z,9.87
2019-03-25T08:20:29.139Z,9.84
2019-03-25T08:22:57.700Z,10.10
2019-03-25T08:25:26.499Z,10.03
2019-03-25T08:27:59.848Z,9.81
2019-03-25T08:30:25.495Z,9.72
2019-03-25T08:32:53.953Z,9.68
2019-03-25T08:35:23.097Z,9.88
2019-03-25T08:37:51.769Z,10.42
2019-03-25T08:40:20.366Z,10.86
2019-03-25T08:42:49.001Z,10.69
2019-03-25T08:45:17.998Z,10.63
2019-03-25T08:47:46.535Z,10.19
2019-03-25T08:50:15.309Z,9.90
2019-03-25T08:52:44.346Z,10.07
2019-03-25T08:55:13.271Z,9.82
2019-03-25T08:57:41.942Z,9.45
2019-03-25T09:00:13.429Z,9.30
2019-03-25T09:02:42.000Z,9.03
2019-03-25T09:05:11.122Z,8.76
2019-03-25T09:07:39.698Z,8.45
2019-03-25T09:10:09.978Z,8.42
2019-03-25T09:12:38.604Z,8.47
2019-03-25T09:15:10.308Z,8.77
2019-03-25T09:17:38.997Z,8.67
2019-03-25T09:20:09.018Z,8.52
2019-03-25T09:22:37.718Z,8.12
2019-03-25T09:25:07.796Z,8.18
2019-03-25T09:27:36.417Z,8.11
2019-03-25T09:30:06.676Z,7.96
2019-03-25T09:32:35.378Z,8.33
2019-03-25T09:35:04.797Z,9.20
2019-03-25T09:37:33.457Z,9.75
2019-03-25T09:40:02.064Z,9.43
2019-03-25T09:42:30.704Z,9.35
2019-03-25T09:44:59.308Z,8.94
2019-03-25T09:47:28.006Z,9.20
2019-03-25T09:49:56.578Z,9.76
2019-03-25T09:52:25.287Z,10.28
2019-03-25T09:54:54.071Z,10.05
2019-03-25T09:57:22.827Z,9.76
2019-03-25T09:59:51.574Z,9.58
2019-03-25T10:02:20.140Z,9.27
2019-03-25T10:04:48.773Z,9.22
2019-03-25T10:07:22.509Z,9.15
2019-03-25T10:09:51.048Z,9.14
2019-03-25T10:12:19.733Z,9.78
2019-03-25T10:14:48.327Z,10.24
2019-03-25T10:17:17.330Z,10.46
2019-03-25T10:19:46.117Z,10.37
2019-03-25T10:22:15.159Z,10.53
2019-03-25T10:24:43.959Z,11.18
2019-03-25T10:27:12.672Z,11.50
2019-03-25T10:29:41.251Z,11.64
2019-03-25T10:32:09.945Z,11.25
2019-03-25T10:34:38.602Z,11.21
2019-03-25T10:37:07.310Z,11.37
2019-03-25T10:39:35.847Z,11.15
2019-03-25T10:42:04.462Z,10.98
2019-03-25T10:44:33.037Z,11.06
2019-03-25T10:47:01.661Z,10.88
2019-03-25T10:49:30.111Z,10.52
2019-03-25T10:51:58.686Z,10.38
2019-03-25T10:54:27.273Z,9.69
2019-03-25T10:56:55.757Z,9.09
2019-03-25T10:59:24.207Z,8.88
2019-03-25T11:01:52.751Z,9.63
2019-03-25T11:04:21.379Z,10.13
2019-03-25T11:06:50.039Z,10.35
2019-03-25T11:09:18.598Z,10.60
2019-03-25T11:11:47.217Z,10.85
2019-03-25T11:14:15.883Z,10.88
2019-03-25T11:16:44.505Z,10.95
2019-03-25T11:19:13.031Z,11.15
2019-03-25T11:21:41.570Z,11.53
2019-03-25T11:24:10.168Z,12.01
2019-03-25T11:26:39.079Z,11.84
2019-03-25T11:29:08.557Z,11.78
2019-03-25T11:31:37.451Z,11.56
2019-03-25T11:34:06.085Z,11.51
2019-03-25T11:36:34.733Z,11.58
2019-03-25T11:39:03.386Z,11.63
2019-03-25T11:41:32.033Z,11.27
2019-03-25T11:44:00.834Z,11.00
2019-03-25T11:46:29.445Z,11.09
2019-03-25T11:48:58.120Z,11.15
2019-03-25T11:51:26.776Z,11.14
2019-03-25T11:53:55.332Z,11.18
2019-03-25T11:56:23.908Z,11.01
2019-03-25T11:58:52.424Z,11.20
2019-03-25T12:01:21.127Z,11.47
2019-03-25T12:03:49.992Z,11.51
2019-03-25T12:06:18.616Z,11.50
2019-03-25T12:08:47.191Z,11.22
2019-03-25T12:11:15.823Z,10.56
2019-03-25T12:13:44.391Z,9.81
2019-03-25T12:16:13.012Z,9.58
2019-03-25T12:18:41.610Z,9.76
2019-03-25T12:21:10.152Z,9.94
2019-03-25T12:23:38.781Z,10.05
2019-03-25T12:26:07.294Z,10.45
2019-03-25T12:28:35.941Z,10.45
2019-03-25T12:31:04.541Z,10.83
2019-03-25T12:33:33.131Z,10.88
2019-03-25T12:36:01.672Z,11.11
2019-03-25T12:38:30.309Z,11.26
2019-03-25T12:40:58.938Z,11.70
2019-03-25T12:43:27.426Z,11.95
2019-03-25T12:45:56.089Z,11.79
2019-03-25T12:48:24.586Z,12.04
2019-03-25T12:50:53.146Z,11.68
2019-03-25T12:53:21.624Z,11.39
2019-03-25T12:55:50.383Z,11.16
2019-03-25T12:58:19.418Z,11.27
2019-03-25T13:00:48.061Z,11.39
2019-03-25T13:03:16.850Z,11.06
2019-03-25T13:05:45.371Z,10.91
2019-03-25T13:08:13.902Z,10.83
2019-03-25T13:10:42.464Z,10.93
2019-03-25T13:13:11.065Z,10.87
2019-03-25T13:15:39.674Z,11.00
2019-03-25T13:18:08.336Z,10.95
2019-03-25T13:20:36.865Z,11.28
2019-03-25T13:23:05.470Z,11.66
2019-03-25T13:25:34.068Z,11.59
2019-03-25T13:28:02.633Z,10.81
2019-03-25T13:30:31.290Z,10.34
2019-03-25T13:32:59.846Z,9.89
2019-03-25T13:35:28.456Z,9.41
2019-03-25T13:37:58.952Z,9.22
2019-03-25T13:40:27.387Z,9.43
2019-03-25T13:42:55.864Z,9.75
2019-03-25T13:45:25.198Z,10.19
2019-03-25T13:47:54.091Z,10.24
2019-03-25T13:50:22.734Z,10.10
2019-03-25T13:52:51.341Z,10.16
2019-03-25T13:55:20.802Z,10.26
2019-03-25T13:57:49.307Z,10.58
2019-03-25T14:00:20.843Z,10.63
2019-03-25T14:02:49.319Z,10.22
2019-03-25T14:05:17.849Z,9.95
2019-03-25T14:07:46.389Z,9.76
2019-03-25T14:10:15.377Z,9.67
2019-03-25T14:12:43.850Z,9.34
2019-03-25T14:15:12.717Z,9.24
2019-03-25T14:17:41.333Z,9.55
2019-03-25T14:20:10.756Z,9.67
2019-03-25T14:22:39.373Z,9.88
2019-03-25T14:25:08.163Z,10.12
2019-03-25T14:27:36.652Z,10.19
2019-03-25T14:30:14.429Z,10.42
2019-03-25T14:32:38.066Z,10.61
2019-03-25T14:35:07.685Z,11.01
2019-03-25T14:37:36.272Z,10.92
2019-03-25T14:40:07.225Z,10.78
2019-03-25T14:42:35.807Z,10.42
2019-03-25T14:45:05.941Z,10.18
2019-03-25T14:47:34.809Z,10.17
2019-03-25T14:50:04.463Z,10.20
2019-03-25T14:52:33.088Z,10.28
2019-03-25T14:55:01.628Z,10.45
2019-03-25T14:57:30.249Z,10.38
2019-03-25T14:59:58.776Z,10.46
2019-03-25T15:02:27.350Z,10.38
2019-03-25T15:04:56.272Z,10.48
2019-03-25T15:07:24.922Z,10.67
2019-03-25T15:09:53.653Z,10.76
2019-03-25T15:12:22.412Z,10.46
2019-03-25T15:14:50.860Z,10.22
2019-03-25T15:17:19.470Z,9.99
2019-03-25T15:20:47.911Z,9.86
2019-03-25T15:23:16.530Z,9.73
2019-03-25T15:27:15.982Z,9.91
2019-03-25T15:29:44.420Z,9.93
2019-03-25T15:32:13.058Z,9.82
2019-03-25T15:34:41.576Z,9.68
2019-03-25T15:37:10.141Z,9.58
2019-03-25T15:39:46.377Z,9.54
2019-03-25T15:42:09.110Z,9.53
2019-03-25T15:44:37.700Z,9.65
2019-03-25T15:47:06.346Z,9.81
2019-03-25T15:49:34.973Z,9.90
2019-03-25T15:52:03.544Z,9.73
2019-03-25T15:54:32.171Z,9.73
2019-03-25T15:57:00.744Z,9.84
2019-03-25T15:59:29.297Z,10.12
2019-03-25T16:01:57.891Z,10.31
2019-03-25T16:04:26.401Z,10.57
2019-03-25T16:06:55.346Z,10.73
2019-03-25T16:09:25.162Z,10.77
2019-03-25T16:11:53.627Z,10.87
2019-03-25T16:14:22.260Z,10.76
2019-03-25T16:16:51.103Z,10.69
2019-03-25T16:19:19.731Z,10.61
2019-03-25T16:21:48.451Z,10.47
2019-03-25T16:24:16.974Z,10.20
2019-03-25T16:26:45.805Z,10.23
2019-03-25T16:29:14.434Z,10.32
2019-03-25T16:31:43.090Z,10.38
2019-03-25T16:34:11.615Z,10.38
2019-03-25T16:36:40.245Z,10.40
2019-03-25T16:39:09.119Z,10.42
2019-03-25T16:41:37.746Z,10.46
2019-03-25T16:44:06.350Z,10.25
2019-03-25T16:46:34.856Z,10.02
2019-03-25T16:49:03.793Z,9.96
2019-03-25T16:51:32.393Z,9.94
2019-03-25T16:54:00.936Z,9.81
2019-03-25T16:56:29.556Z,9.77
2019-03-25T16:58:58.071Z,9.86
2019-03-25T17:01:26.731Z,10.00
2019-03-25T17:03:55.366Z,10.13
2019-03-25T17:06:24.777Z,10.11
2019-03-25T17:08:53.718Z,10.01
2019-03-25T17:11:22.297Z,10.10
2019-03-25T17:13:50.850Z,10.20
2019-03-25T17:16:19.424Z,10.23
2019-03-25T17:18:47.940Z,10.21
2019-03-25T17:21:16.560Z,9.90
2019-03-25T17:23:45.063Z,9.77
2019-03-25T17:26:13.681Z,9.62
2019-03-25T17:28:42.310Z,9.46
2019-03-25T17:31:20.543Z,9.54
2019-03-25T17:33:41.209Z,9.54
2019-03-25T17:36:09.795Z,9.55
2019-03-25T17:38:38.615Z,9.51
2019-03-25T17:41:07.309Z,9.48
2019-03-25T17:43:35.841Z,9.50
2019-03-25T17:46:04.571Z,9.49
2019-03-25T17:48:33.408Z,9.57
2019-03-25T17:51:02.160Z,9.78
2019-03-25T17:53:30.781Z,9.75
2019-03-25T17:55:59.863Z,9.59
2019-03-25T17:58:28.435Z,9.44
2019-03-25T18:01:02.784Z,9.41
2019-03-25T18:03:31.369Z,9.25
2019-03-25T18:05:59.927Z,9.26
2019-03-25T18:08:28.575Z,9.21
2019-03-25T18:10:57.192Z,9.16
2019-03-25T18:13:26.344Z,9.04
2019-03-25T18:15:55.049Z,9.13
